Olar, South Carolina
Current Conditions -  °F | °C
As of 1:35 AM on Sunday 21 Dec 2014 (Local Time) from KBNL Reporting Station
NA  
Wind Chill: 44°   Ceiling: NA
Heat Index: 46°   Visibility: NA
Dew Point: 45°   Wind: 6mph
Humidity: 93%   Direction: 60°ENE
Pressure: 30.21"   Gusts: NA
Location:  33.18°N, 81.19°W
Report Text: KBNL 210635Z AUTO 06005KT 08/07 A3021 RMK AO2
Loading
Personal Weather Stations






























Interactive Weather Map New forecast layout! Learn more

10-Day Weather Forecast

Advertisements
Track Severe Weather on mobile